Happy Days — WDB6140 — position and weather

sailwx.info

Track history (hours):
 
Tides and Currents Weather Stations Pressure Air Temp Water Temp Dewpoint Dewpoint Depression Visibility Wind Speed Wind Dir Waves Ship Positions

Happy Days

Owner: nazar, joe d, san francisco, CA. More information available from US FCC via Universal Licensing System and Coast Guard Vessel Documentation Center.

Last reported at 2018-Jan-30 00:35 UTC. Time now 2018-Feb-23 02:40 UTC.
Position N 36°37' W 121°54'.
Warning: this ship's position is 24 days out of date.

Length 13 m.

Type: Fishing. MMSI: 366918840.

Date/timePositionNaut miles runAvg speedWind from/ knotsBaromVisibWave heightAir tempDewpointWater temp
2018-Jan-30 00:35N 36°37' W 121°54'0 0.0
2018-Jan-30 00:29N 36°37' W 121°54'0 0.1
2018-Jan-29 23:56N 36°37' W 121°54'0 0.0
2018-Jan-29 23:26N 36°37' W 121°54'0 0.1
2018-Jan-29 22:55N 36°36' W 121°54'0 0.0
2018-Jan-29 22:28N 36°36' W 121°54'0 0.0
2018-Jan-29 21:58N 36°36' W 121°54'0 0.0
2018-Jan-29 21:25N 36°36' W 121°54'0 0.0
2018-Jan-29 20:55N 36°36' W 121°54'0 0.0
2018-Jan-29 20:28N 36°36' W 121°54'  
2018-Jan-23 23:03N 36°36' W 121°54'0 0.0
2018-Jan-23 23:00N 36°36' W 121°54'0 0.1
2018-Jan-23 22:25N 36°37' W 121°54'0 0.1
2018-Jan-23 20:41N 36°37' W 121°54'4816.0
2018-Jan-23 17:42N 37°16' W 122°27'416.2
2018-Jan-23 17:26N 37°20' W 122°28'816.0
2018-Jan-23 16:57N 37°28' W 122°31'715.7
2018-Jan-23 16:30N 37°35' W 122°33'1115.8
2018-Jan-23 15:48N 37°46' W 122°32'414.0
2018-Jan-23 15:30N 37°49' W 122°28'3 0.1
2018-Jan-22 16:34N 37°49' W 122°25'0 0.0
2018-Jan-22 16:25N 37°49' W 122°25'0 0.0
2018-Jan-22 15:58N 37°49' W 122°25'0 0.6
2018-Jan-22 15:30N 37°49' W 122°25'510.5
2018-Jan-22 15:00N 37°48' W 122°31'4 7.4
2018-Jan-22 14:29N 37°49' W 122°27'1 2.3
2018-Jan-22 14:00N 37°49' W 122°25'1 0.1
2018-Jan-22 04:10N 37°49' W 122°25'0 0.0
2018-Jan-22 03:58N 37°49' W 122°25'0 0.1
2018-Jan-22 03:30N 37°49' W 122°24'0 0.8
2018-Jan-22 03:00N 37°48' W 122°25'0 0.0
2018-Jan-22 02:27N 37°48' W 122°25'0 0.5
2018-Jan-22 02:00N 37°49' W 122°25'2 4.2
2018-Jan-22 01:30N 37°49' W 122°28'2 4.3
2018-Jan-22 00:59N 37°48' W 122°25'0 0.0
2018-Jan-22 00:26N 37°48' W 122°25'0 0.0
2018-Jan-21 23:59N 37°48' W 122°25'2 4.4
2018-Jan-21 23:30N 37°49' W 122°28'2 4.0
2018-Jan-21 22:58N 37°48' W 122°25'0 0.0
2018-Jan-21 22:28N 37°48' W 122°25'0 0.0
2018-Jan-21 21:58N 37°48' W 122°25'2 3.8
2018-Jan-21 21:30N 37°50' W 122°27'2 3.2
2018-Jan-21 21:00N 37°49' W 122°25'0 0.3
2018-Jan-21 20:29N 37°48' W 122°25'0 0.0
2018-Jan-21 20:00N 37°48' W 122°25'0 0.0
2018-Jan-21 19:30N 37°48' W 122°25'0 0.8
2018-Jan-21 19:01N 37°49' W 122°25'0 0.1
2018-Jan-21 18:30N 37°48' W 122°24'0 0.0
2018-Jan-20 18:33N 37°49' W 122°25'0 0.0
2018-Jan-20 18:30N 37°49' W 122°25'2 3.3
2018-Jan-20 18:00N 37°49' W 122°27'611.8
2018-Jan-20 17:30N 37°47' W 122°34'2 3.1
2018-Jan-20 17:00N 37°48' W 122°32'5 9.8
2018-Jan-20 16:30N 37°50' W 122°26'2 3.7
2018-Jan-20 15:58N 37°49' W 122°25'0 0.0
2018-Jan-20 15:28N 37°49' W 122°25'  
Track history (hours):
 
Tides and Currents Weather Stations Pressure Air Temp Water Temp Dewpoint Dewpoint Depression Visibility Wind Speed Wind Dir Waves Ship Positions

Happy Days

Owner: nazar, joe d, san francisco, CA. More information available from US FCC via Universal Licensing System and Coast Guard Vessel Documentation Center.

Last reported at 2018-Jan-30 00:35 UTC. Time now 2018-Feb-23 02:40 UTC.
Position N 36°37' W 121°54'.
Warning: this ship's position is 24 days out of date.

Length 13 m.

Type: Fishing. MMSI: 366918840.

Date/timePositionNaut miles runAvg speedWind from/ knotsBaromVisibWave heightAir tempDewpointWater temp
2018-Jan-30 00:35N 36°37' W 121°54'0 0.0
2018-Jan-30 00:29N 36°37' W 121°54'0 0.1
2018-Jan-29 23:56N 36°37' W 121°54'0 0.0
2018-Jan-29 23:26N 36°37' W 121°54'0 0.1
2018-Jan-29 22:55N 36°36' W 121°54'0 0.0
2018-Jan-29 22:28N 36°36' W 121°54'0 0.0
2018-Jan-29 21:58N 36°36' W 121°54'0 0.0
2018-Jan-29 21:25N 36°36' W 121°54'0 0.0
2018-Jan-29 20:55N 36°36' W 121°54'0 0.0
2018-Jan-29 20:28N 36°36' W 121°54'  
2018-Jan-23 23:03N 36°36' W 121°54'0 0.0
2018-Jan-23 23:00N 36°36' W 121°54'0 0.1
2018-Jan-23 22:25N 36°37' W 121°54'0 0.1
2018-Jan-23 20:41N 36°37' W 121°54'4816.0
2018-Jan-23 17:42N 37°16' W 122°27'416.2
2018-Jan-23 17:26N 37°20' W 122°28'816.0
2018-Jan-23 16:57N 37°28' W 122°31'715.7
2018-Jan-23 16:30N 37°35' W 122°33'1115.8
2018-Jan-23 15:48N 37°46' W 122°32'414.0
2018-Jan-23 15:30N 37°49' W 122°28'3 0.1
2018-Jan-22 16:34N 37°49' W 122°25'0 0.0
2018-Jan-22 16:25N 37°49' W 122°25'0 0.0
2018-Jan-22 15:58N 37°49' W 122°25'0 0.6
2018-Jan-22 15:30N 37°49' W 122°25'510.5
2018-Jan-22 15:00N 37°48' W 122°31'4 7.4
2018-Jan-22 14:29N 37°49' W 122°27'1 2.3
2018-Jan-22 14:00N 37°49' W 122°25'1 0.1
2018-Jan-22 04:10N 37°49' W 122°25'0 0.0
2018-Jan-22 03:58N 37°49' W 122°25'0 0.1
2018-Jan-22 03:30N 37°49' W 122°24'0 0.8
2018-Jan-22 03:00N 37°48' W 122°25'0 0.0
2018-Jan-22 02:27N 37°48' W 122°25'0 0.5
2018-Jan-22 02:00N 37°49' W 122°25'2 4.2
2018-Jan-22 01:30N 37°49' W 122°28'2 4.3
2018-Jan-22 00:59N 37°48' W 122°25'0 0.0
2018-Jan-22 00:26N 37°48' W 122°25'0 0.0
2018-Jan-21 23:59N 37°48' W 122°25'2 4.4
2018-Jan-21 23:30N 37°49' W 122°28'2 4.0
2018-Jan-21 22:58N 37°48' W 122°25'0 0.0
2018-Jan-21 22:28N 37°48' W 122°25'0 0.0
2018-Jan-21 21:58N 37°48' W 122°25'2 3.8
2018-Jan-21 21:30N 37°50' W 122°27'2 3.2
2018-Jan-21 21:00N 37°49' W 122°25'0 0.3
2018-Jan-21 20:29N 37°48' W 122°25'0 0.0
2018-Jan-21 20:00N 37°48' W 122°25'0 0.0
2018-Jan-21 19:30N 37°48' W 122°25'0 0.8
2018-Jan-21 19:01N 37°49' W 122°25'0 0.1
2018-Jan-21 18:30N 37°48' W 122°24'0 0.0
2018-Jan-20 18:33N 37°49' W 122°25'0 0.0
2018-Jan-20 18:30N 37°49' W 122°25'2 3.3
2018-Jan-20 18:00N 37°49' W 122°27'611.8
2018-Jan-20 17:30N 37°47' W 122°34'2 3.1
2018-Jan-20 17:00N 37°48' W 122°32'5 9.8
2018-Jan-20 16:30N 37°50' W 122°26'2 3.7
2018-Jan-20 15:58N 37°49' W 122°25'0 0.0
2018-Jan-20 15:28N 37°49' W 122°25'  

Dump ship's entire track history